MiSS Bobbie Fugit — WDC6509 — position and weather

sailwx.info

Track history (hours):
 
Tides and Currents Weather Stations Pressure Air Temp Water Temp Dewpoint Dewpoint Depression Visibility Wind Speed Wind Dir Waves Ship Positions

MiSS Bobbie Fugit

Owner: American Commercial Lines LLC, Jeffersonville, IN. More information available from US FCC via Universal Licensing System and Coast Guard Vessel Documentation Center.

Last reported at 2018-Jun-06 17:25 UTC. Time now 2018-Jun-24 13:01 UTC.
Position N 31°60' W 091°05'.
Warning: this ship's position is 17 days out of date.

Length 27 m; draft 2.8 m.

Type: Towing. MMSI: 367057310.

Date/timePositionNaut miles runAvg speedWind from/ knotsBaromVisibWave heightAir tempDewpointWater temp
2018-Jun-06 17:25N 31°60' W 091°05'6 9.5
2018-Jun-06 16:46N 32°06' W 091°06'2 7.7
2018-Jun-06 16:31N 32°08' W 091°05'4 8.8
2018-Jun-06 16:01N 32°09' W 091°00'611.3
2018-Jun-06 15:30N 32°15' W 090°59'5 9.9
2018-Jun-06 15:00N 32°19' W 090°55'3 5.8
2018-Jun-06 14:30N 32°21' W 090°56'0 0.5
2018-Jun-06 14:01N 32°21' W 090°57'0 0.7
2018-Jun-06 13:31N 32°21' W 090°57'3 5.9
2018-Jun-06 13:01N 32°22' W 091°00'4 7.5
2018-Jun-06 12:30N 32°26' W 091°01'611.7
2018-Jun-06 12:01N 32°29' W 091°07'611.0
2018-Jun-06 11:29N 32°35' W 091°07'510.3
2018-Jun-06 11:00N 32°40' W 091°08'5 8.2
2018-Jun-06 10:20N 32°44' W 091°04'410.5
2018-Jun-06 09:59N 32°44' W 091°08'  
Track history (hours):
 
Tides and Currents Weather Stations Pressure Air Temp Water Temp Dewpoint Dewpoint Depression Visibility Wind Speed Wind Dir Waves Ship Positions

MiSS Bobbie Fugit

Owner: American Commercial Lines LLC, Jeffersonville, IN. More information available from US FCC via Universal Licensing System and Coast Guard Vessel Documentation Center.

Last reported at 2018-Jun-06 17:25 UTC. Time now 2018-Jun-24 13:01 UTC.
Position N 31°60' W 091°05'.
Warning: this ship's position is 17 days out of date.

Length 27 m; draft 2.8 m.

Type: Towing. MMSI: 367057310.

Date/timePositionNaut miles runAvg speedWind from/ knotsBaromVisibWave heightAir tempDewpointWater temp
2018-Jun-06 17:25N 31°60' W 091°05'6 9.5
2018-Jun-06 16:46N 32°06' W 091°06'2 7.7
2018-Jun-06 16:31N 32°08' W 091°05'4 8.8
2018-Jun-06 16:01N 32°09' W 091°00'611.3
2018-Jun-06 15:30N 32°15' W 090°59'5 9.9
2018-Jun-06 15:00N 32°19' W 090°55'3 5.8
2018-Jun-06 14:30N 32°21' W 090°56'0 0.5
2018-Jun-06 14:01N 32°21' W 090°57'0 0.7
2018-Jun-06 13:31N 32°21' W 090°57'3 5.9
2018-Jun-06 13:01N 32°22' W 091°00'4 7.5
2018-Jun-06 12:30N 32°26' W 091°01'611.7
2018-Jun-06 12:01N 32°29' W 091°07'611.0
2018-Jun-06 11:29N 32°35' W 091°07'510.3
2018-Jun-06 11:00N 32°40' W 091°08'5 8.2
2018-Jun-06 10:20N 32°44' W 091°04'410.5
2018-Jun-06 09:59N 32°44' W 091°08'  

Dump ship's entire track history